Time;durP1;ratioP1;P1;durP2;ratioP2;P2;SDS_P1;SDS_P2;PMS_P1;PMS_P2;Temp;Humidity;BMP_temperature;BMP_pressure;BME280_temperature;BME280_humidity;BME280_pressure;Samples;Min_cycle;Max_cycle;Signal;HPM_P1;HPM_P2
2023/06/09 00:00:11;;;;;;;13.60;4.88;;;;;;;18.61;56.39;100945.84;5049316;28;20064;-68
2023/06/09 00:02:38;;;;;;;7.32;4.43;;;;;;;18.70;56.37;100941.88;5049683;28;20048;-68
2023/06/09 00:05:05;;;;;;;13.48;5.15;;;;;;;18.67;56.05;100947.72;5049686;28;20044;-68
2023/06/09 00:07:35;;;;;;;11.48;4.97;;;;;;;18.57;55.77;100941.88;5048823;28;20045;-68
2023/06/09 00:10:06;;;;;;;11.80;4.38;;;;;;;18.74;55.60;100945.84;5048659;28;20512;-67
2023/06/09 00:12:32;;;;;;;10.88;4.55;;;;;;;18.60;55.71;100952.31;5064024;28;20052;-68
2023/06/09 00:14:59;;;;;;;16.45;5.45;;;;;;;18.65;55.63;100949.81;5069787;28;20443;-68
2023/06/09 00:17:26;;;;;;;7.95;4.65;;;;;;;18.69;55.24;100935.59;5069794;28;20110;-68
2023/06/09 00:19:54;;;;;;;10.07;5.00;;;;;;;18.46;55.10;100946.88;5068041;28;20048;-68
2023/06/09 00:22:20;;;;;;;9.13;5.03;;;;;;;18.29;55.41;100940.16;5072683;28;20055;-68
2023/06/09 00:24:47;;;;;;;13.48;4.65;;;;;;;18.19;54.88;100929.69;5073070;28;20117;-68
2023/06/09 00:27:13;;;;;;;13.55;4.70;;;;;;;18.09;54.50;100930.03;5073092;28;20048;-68
2023/06/09 00:29:40;;;;;;;9.18;4.68;;;;;;;18.20;54.11;100936.81;5072853;28;20049;-68
2023/06/09 00:32:08;;;;;;;10.82;4.72;;;;;;;18.25;53.54;100928.03;5055113;28;20095;-68
2023/06/09 00:34:35;;;;;;;9.20;4.97;;;;;;;18.21;53.48;100926.78;5073183;28;20101;-68
2023/06/09 00:37:01;;;;;;;8.32;4.25;;;;;;;18.15;53.37;100928.44;5073141;28;20466;-68
2023/06/09 00:39:28;;;;;;;9.23;4.47;;;;;;;18.19;52.95;100932.41;5057357;28;20501;-68
2023/06/09 00:41:54;;;;;;;13.07;5.03;;;;;;;17.93;52.61;100925.00;5052719;28;20049;-68
2023/06/09 00:44:21;;;;;;;14.80;4.57;;;;;;;18.27;52.66;100926.78;5052490;28;20095;-67
2023/06/09 00:46:48;;;;;;;8.95;4.25;;;;;;;18.27;51.79;100920.50;5052765;28;20103;-67
2023/06/09 00:49:15;;;;;;;6.20;4.10;;;;;;;18.20;51.70;100930.50;5052743;28;20060;-67
2023/06/09 00:51:42;;;;;;;9.00;4.35;;;;;;;18.08;51.14;100931.09;5052799;28;20073;-67
2023/06/09 00:54:08;;;;;;;13.27;3.95;;;;;;;18.11;50.99;100931.75;5052579;28;20460;-69
2023/06/09 00:56:35;;;;;;;11.15;4.47;;;;;;;18.14;50.93;100926.72;5052791;28;20531;-69
2023/06/09 00:59:03;;;;;;;7.75;4.72;;;;;;;18.05;50.44;100928.78;5052180;28;20463;-68
2023/06/09 01:01:32;;;;;;;7.38;4.03;;;;;;;17.95;50.50;100930.22;5051975;28;20052;-68
2023/06/09 01:04:00;;;;;;;7.82;4.65;;;;;;;17.77;49.98;100931.63;5052490;28;20041;-69
2023/06/09 01:07:24;;;;;;;8.20;3.95;;;;;;;17.74;49.93;100936.59;5052426;28;20041;-67
2023/06/09 01:10:06;;;;;;;11.57;4.80;;;;;;;18.03;49.94;100936.31;5051960;28;20048;-68
2023/06/09 01:12:47;;;;;;;10.80;5.22;;;;;;;18.15;50.36;100933.84;5051296;28;20037;-67
2023/06/09 01:15:18;;;;;;;14.05;5.03;;;;;;;18.11;50.69;100931.75;5052002;28;20045;-68
2023/06/09 01:17:48;;;;;;;6.70;4.17;;;;;;;18.13;51.25;100941.31;5051099;28;20052;-68
2023/06/09 01:20:45;;;;;;;13.87;4.20;;;;;;;18.09;51.74;100934.63;5052145;28;20045;-68
2023/06/09 01:23:51;;;;;;;13.02;5.03;;;;;;;18.14;51.89;100936.75;5046510;28;24958;-68
2023/06/09 01:26:18;;;;;;;13.50;4.95;;;;;;;18.10;51.83;100936.34;5034693;28;20120;-69
2023/06/09 01:28:47;;;;;;;7.38;4.20;;;;;;;18.11;52.24;100937.16;5051410;28;20417;-69
2023/06/09 01:31:15;;;;;;;9.88;4.53;;;;;;;18.13;52.67;100935.06;5042117;28;20097;-69
2023/06/09 01:33:44;;;;;;;10.52;4.85;;;;;;;18.13;53.22;100945.91;5050594;28;20053;-69
2023/06/09 01:36:11;;;;;;;13.95;4.80;;;;;;;18.16;53.39;100943.66;5051663;28;20420;-68
2023/06/09 01:38:38;;;;;;;11.50;4.70;;;;;;;18.14;53.64;100943.03;5041714;28;20080;-68
2023/06/09 01:41:05;;;;;;;12.98;5.18;;;;;;;18.08;54.07;100939.22;5030636;28;20050;-68
2023/06/09 01:43:31;;;;;;;7.50;4.93;;;;;;;18.04;54.46;100943.41;5031098;28;20075;-68
2023/06/09 01:45:58;;;;;;;11.75;5.70;;;;;;;18.02;54.70;100937.34;5030398;28;20053;-68
2023/06/09 01:48:46;;;;;;;10.00;5.00;;;;;;;18.04;54.89;100937.97;5030835;28;20041;-68
2023/06/09 01:51:22;;;;;;;8.80;6.00;;;;;;;18.03;55.23;100943.59;5031387;28;20071;-68
2023/06/09 01:53:56;;;;;;;12.18;5.65;;;;;;;17.98;55.94;100944.22;5031319;28;20391;-68
2023/06/09 01:56:40;;;;;;;14.65;5.50;;;;;;;17.96;56.20;100940.03;5030647;28;20542;-68
2023/06/09 01:59:11;;;;;;;13.80;4.97;;;;;;;17.94;56.48;100942.13;5031141;28;20096;-68
2023/06/09 02:01:38;;;;;;;9.33;5.90;;;;;;;17.90;57.28;100936.25;5030305;28;20099;-68
2023/06/09 02:04:08;;;;;;;11.70;5.75;;;;;;;17.80;58.13;100931.22;5031109;28;20524;-68
2023/06/09 02:06:35;;;;;;;13.98;5.72;;;;;;;17.83;58.67;100930.81;5030088;28;20464;-68
2023/06/09 02:09:02;;;;;;;11.27;5.38;;;;;;;17.81;59.38;100937.47;5030591;28;20049;-68
2023/06/09 02:11:29;;;;;;;12.60;5.55;;;;;;;17.75;59.90;100941.00;5034680;28;20443;-68
2023/06/09 02:13:56;;;;;;;13.60;6.07;;;;;;;17.74;61.02;100937.44;5050432;28;20466;-68
2023/06/09 02:16:24;;;;;;;14.77;5.88;;;;;;;17.72;61.95;100933.28;5050360;28;20049;-68
2023/06/09 02:18:52;;;;;;;14.15;5.82;;;;;;;17.69;63.63;100939.94;5051226;28;20108;-69
2023/06/09 02:21:19;;;;;;;12.20;5.82;;;;;;;17.65;65.08;100940.53;5051007;28;20049;-69
2023/06/09 02:23:45;;;;;;;13.05;6.45;;;;;;;17.44;67.82;100934.19;5050939;28;20048;-68
2023/06/09 02:26:12;;;;;;;13.30;6.40;;;;;;;17.47;69.48;100936.47;5050741;28;20102;-69
2023/06/09 02:28:39;;;;;;;10.85;6.55;;;;;;;17.30;72.61;100935.97;5050551;28;20417;-69
2023/06/09 02:31:06;;;;;;;13.20;6.60;;;;;;;17.36;73.60;100935.16;5049817;28;20102;-69
2023/06/09 02:33:33;;;;;;;12.65;6.07;;;;;;;17.33;75.02;100934.69;5050162;28;20045;-69
2023/06/09 02:35:59;;;;;;;13.18;6.65;;;;;;;17.34;75.94;100925.59;5050277;28;20139;-69
2023/06/09 02:38:26;;;;;;;21.20;6.68;;;;;;;17.38;76.10;100926.84;5050033;28;20052;-69
2023/06/09 02:40:53;;;;;;;12.35;6.43;;;;;;;17.39;76.17;100933.09;5050236;28;20079;-69
2023/06/09 02:43:19;;;;;;;10.63;6.57;;;;;;;17.31;76.88;100932.19;5049624;28;20045;-68
2023/06/09 02:45:47;;;;;;;11.15;6.65;;;;;;;17.23;77.26;100932.34;5050406;28;20485;-69
2023/06/09 02:48:15;;;;;;;14.40;7.25;;;;;;;17.07;78.20;100930.78;5049055;28;20057;-69
2023/06/09 02:50:41;;;;;;;15.80;6.95;;;;;;;17.09;78.80;100938.72;5049685;28;20420;-69
2023/06/09 02:53:08;;;;;;;13.98;5.95;;;;;;;17.17;78.97;100932.31;5049158;28;20049;-68
2023/06/09 02:55:34;;;;;;;13.82;7.03;;;;;;;17.03;79.62;100934.94;5049468;28;20049;-68
2023/06/09 02:58:02;;;;;;;12.50;6.43;;;;;;;17.02;79.53;100935.94;5050010;28;20052;-68
2023/06/09 03:00:28;;;;;;;16.13;5.93;;;;;;;17.03;80.14;100942.25;5049251;28;20493;-69
2023/06/09 03:02:56;;;;;;;15.35;6.53;;;;;;;16.98;79.81;100939.25;5049237;28;20052;-68
2023/06/09 03:05:24;;;;;;;15.98;5.80;;;;;;;16.98;80.37;100936.56;5050350;28;20062;-69
2023/06/09 03:07:51;;;;;;;12.98;5.68;;;;;;;16.98;76.37;100942.81;5052987;28;20052;-70
2023/06/09 03:10:18;;;;;;;10.60;6.40;;;;;;;16.71;100.00;100946.34;5061637;28;20052;-64
2023/06/09 03:12:45;;;;;;;18.08;7.60;;;;;;;16.29;100.00;100940.72;5066162;28;20121;-67
2023/06/09 03:15:11;;;;;;;12.77;7.30;;;;;;;16.12;100.00;100942.81;5056087;28;20053;-63
2023/06/09 03:17:41;;;;;;;15.88;8.18;;;;;;;16.22;100.00;100947.09;5049786;28;20489;-64
2023/06/09 03:20:09;;;;;;;14.88;6.93;;;;;;;16.37;100.00;100947.91;5049168;28;20053;-64
2023/06/09 03:22:36;;;;;;;14.38;6.50;;;;;;;16.35;100.00;100955.34;5049049;28;20390;-63
2023/06/09 03:25:03;;;;;;;13.80;6.68;;;;;;;16.39;100.00;100959.34;5050237;28;20060;-62
2023/06/09 03:27:30;;;;;;;21.17;7.57;;;;;;;16.39;100.00;100959.34;5050185;28;20049;-64
2023/06/09 03:29:56;;;;;;;15.98;6.43;;;;;;;16.47;100.00;100958.38;5049461;28;20106;-64
2023/06/09 03:32:23;;;;;;;14.20;6.38;;;;;;;16.67;100.00;100957.56;5050257;28;20091;-65
2023/06/09 03:34:50;;;;;;;15.57;5.82;;;;;;;16.82;100.00;100957.50;5050035;28;20045;-64
2023/06/09 03:37:16;;;;;;;10.88;5.88;;;;;;;16.66;100.00;100958.59;5050089;28;20083;-64
2023/06/09 03:39:43;;;;;;;17.08;6.10;;;;;;;16.79;98.68;100959.75;5032284;28;20128;-64
2023/06/09 03:42:09;;;;;;;17.38;6.70;;;;;;;16.66;100.00;100965.91;5027667;28;20366;-65
2023/06/09 03:44:36;;;;;;;15.13;7.07;;;;;;;16.69;96.42;100965.50;5029756;28;20041;-63
2023/06/09 03:47:12;;;;;;;24.13;6.38;;;;;;;16.60;95.98;100962.09;5032647;28;20076;-63
2023/06/09 03:49:38;;;;;;;17.80;6.60;;;;;;;16.48;95.52;100955.50;5029333;28;20049;-63
2023/06/09 03:52:06;;;;;;;10.30;5.72;;;;;;;16.45;94.48;100969.41;5028974;28;20103;-64
2023/06/09 03:54:34;;;;;;;12.93;6.53;;;;;;;16.41;93.98;100962.72;5029472;28;20068;-64
2023/06/09 03:57:00;;;;;;;14.07;6.30;;;;;;;16.49;91.68;100965.28;5031443;28;20520;-63
2023/06/09 03:59:27;;;;;;;16.65;6.35;;;;;;;16.42;90.51;100965.22;5032556;28;20559;-63
2023/06/09 04:01:53;;;;;;;14.30;6.00;;;;;;;16.45;89.63;100971.28;5033657;28;20053;-63
2023/06/09 04:04:20;;;;;;;12.20;6.07;;;;;;;16.54;88.23;100965.59;5033267;28;20132;-63
2023/06/09 04:06:47;;;;;;;12.35;5.65;;;;;;;16.62;87.77;100964.63;5033565;28;20076;-63
2023/06/09 04:09:15;;;;;;;14.40;6.03;;;;;;;16.57;87.15;100962.47;5034002;28;20045;-64
2023/06/09 04:11:42;;;;;;;13.10;6.20;;;;;;;16.74;85.79;100963.03;5040101;28;20404;-65
2023/06/09 04:14:08;;;;;;;19.70;7.05;;;;;;;16.81;84.60;100963.09;5052538;28;20049;-63
2023/06/09 04:16:36;;;;;;;18.27;6.32;;;;;;;16.75;83.00;100961.16;5052442;28;20579;-63
2023/06/09 04:19:02;;;;;;;12.05;5.70;;;;;;;16.90;82.79;100967.34;5052882;28;20064;-64
2023/06/09 04:21:30;;;;;;;16.98;7.22;;;;;;;16.90;80.41;100962.78;5051322;28;20048;-64
2023/06/09 04:23:56;;;;;;;11.80;6.15;;;;;;;16.59;80.74;100957.72;5052497;28;20053;-64
2023/06/09 04:26:23;;;;;;;13.77;6.25;;;;;;;16.98;78.95;100963.66;5053210;28;20451;-63
2023/06/09 04:28:53;;;;;;;13.02;5.88;;;;;;;16.87;76.41;100957.75;5052902;28;20413;-63
2023/06/09 04:31:23;;;;;;;15.25;5.70;;;;;;;17.14;75.71;100956.06;5052197;28;20082;-63
2023/06/09 04:33:55;;;;;;;10.45;5.32;;;;;;;17.06;73.69;100960.78;5052102;28;20053;-62
2023/06/09 04:36:21;;;;;;;13.25;5.85;;;;;;;17.01;71.94;100969.53;5053228;28;20053;-63
2023/06/09 04:38:49;;;;;;;11.57;5.32;;;;;;;16.90;68.84;100956.53;5052947;28;20045;-64
2023/06/09 04:41:17;;;;;;;8.43;5.03;;;;;;;16.77;68.62;100962.66;5052582;28;20079;-64
2023/06/09 04:43:44;;;;;;;11.13;5.47;;;;;;;16.88;67.90;100969.41;5052306;28;20571;-64
2023/06/09 04:46:12;;;;;;;14.85;5.70;;;;;;;16.85;66.10;100965.25;5052349;28;20132;-63
2023/06/09 04:48:41;;;;;;;19.65;5.70;;;;;;;16.95;69.42;100973.00;5052634;28;20045;-64
2023/06/09 04:51:07;;;;;;;11.77;5.20;;;;;;;16.88;63.42;100961.28;5053162;28;20448;-63
2023/06/09 04:53:35;;;;;;;11.00;5.07;;;;;;;16.66;61.97;100965.91;5051452;28;20048;-64
2023/06/09 04:56:01;;;;;;;14.95;4.93;;;;;;;16.88;66.24;100958.56;5052170;28;20052;-63
2023/06/09 04:58:28;;;;;;;11.93;4.70;;;;;;;16.74;62.38;100959.50;5052087;28;20049;-64
2023/06/09 05:00:57;;;;;;;13.30;4.88;;;;;;;16.97;58.36;100957.41;5051769;28;20045;-63
2023/06/09 05:03:25;;;;;;;12.27;4.55;;;;;;;16.93;58.46;100956.13;5052916;28;20056;-63
2023/06/09 05:05:51;;;;;;;7.82;4.30;;;;;;;17.03;57.58;100956.63;5051277;28;20524;-63
2023/06/09 05:08:18;;;;;;;7.15;4.57;;;;;;;16.97;55.51;100957.41;5051981;28;20404;-63
2023/06/09 05:10:47;;;;;;;11.50;4.43;;;;;;;17.10;57.08;100964.81;5050815;28;20068;-65
2023/06/09 05:13:14;;;;;;;8.40;4.00;;;;;;;17.21;53.93;100956.13;5071490;28;20055;-64
2023/06/09 05:15:40;;;;;;;13.30;4.40;;;;;;;17.30;54.23;100956.78;5053885;28;20068;-63
2023/06/09 05:18:08;;;;;;;11.18;4.25;;;;;;;17.17;51.84;100956.72;5072032;28;20056;-63
2023/06/09 05:20:35;;;;;;;11.15;4.25;;;;;;;17.36;53.33;100961.44;5071125;28;20476;-63
2023/06/09 05:23:02;;;;;;;11.88;3.97;;;;;;;17.32;50.31;100954.72;5072289;28;20052;-62
2023/06/09 05:25:29;;;;;;;12.65;4.22;;;;;;;17.32;49.98;100960.16;5071708;28;20458;-63
2023/06/09 05:27:55;;;;;;;8.60;4.30;;;;;;;17.40;52.36;100962.72;5068181;28;20105;-63
2023/06/09 05:30:22;;;;;;;8.85;4.05;;;;;;;17.45;47.84;100960.25;5040548;28;20474;-63
2023/06/09 05:32:48;;;;;;;7.63;4.05;;;;;;;17.54;50.01;100964.47;5054980;28;20102;-63
2023/06/09 05:35:16;;;;;;;8.07;4.03;;;;;;;17.50;47.19;100967.78;5070680;28;20045;-63
2023/06/09 05:37:50;;;;;;;7.25;3.67;;;;;;;17.51;45.75;100964.03;5068685;28;20123;-64
2023/06/09 05:40:17;;;;;;;7.43;3.85;;;;;;;;;;5061156;28;20048;-64
2023/06/09 05:42:45;;;;;;;11.80;3.60;;;;;;;17.56;45.30;100965.13;5071557;28;20051;-63
2023/06/09 05:45:12;;;;;;;5.68;3.22;;;;;;;17.81;45.44;100972.75;5070822;28;20047;-67
2023/06/09 05:47:38;;;;;;;10.95;4.10;;;;;;;17.56;46.21;100970.53;5070236;28;20098;-63
2023/06/09 05:50:09;;;;;;;6.55;3.72;;;;;;;17.65;43.58;100971.22;5069198;28;20504;-63
2023/06/09 05:52:36;;;;;;;6.67;3.50;;;;;;;17.62;43.13;100977.06;5070228;28;20041;-64
2023/06/09 05:55:03;;;;;;;12.10;3.65;;;;;;;17.55;43.15;100974.31;5070744;28;20759;-63
2023/06/09 05:57:29;;;;;;;9.27;3.45;;;;;;;17.70;42.47;100976.88;5070838;28;20106;-62
2023/06/09 05:59:57;;;;;;;12.60;3.75;;;;;;;17.79;42.98;100980.28;5069302;28;20076;-62
2023/06/09 06:02:24;;;;;;;5.80;3.33;;;;;;;17.80;42.07;100981.94;5069993;28;20416;-62
2023/06/09 06:04:51;;;;;;;10.35;3.67;;;;;;;17.62;41.51;100979.78;5069704;28;20049;-62
2023/06/09 06:07:20;;;;;;;7.38;3.30;;;;;;;17.58;40.49;100983.94;5070069;28;20500;-62
2023/06/09 06:09:47;;;;;;;9.38;3.40;;;;;;;17.92;42.33;100988.44;5070396;28;20102;-62
2023/06/09 06:12:13;;;;;;;6.28;3.00;;;;;;;18.11;43.04;100980.59;5069572;28;20058;-62
2023/06/09 06:14:41;;;;;;;8.18;3.45;;;;;;;18.31;42.09;100984.25;5070862;28;20089;-61
2023/06/09 06:17:07;;;;;;;12.93;3.75;;;;;;;18.33;42.13;100981.31;5069871;28;20552;-61
2023/06/09 06:19:34;;;;;;;6.10;3.47;;;;;;;18.19;40.20;100980.44;5068782;28;20537;-70
2023/06/09 06:22:01;;;;;;;17.00;3.55;;;;;;;18.06;39.00;100990.22;5070040;28;20495;-70
2023/06/09 06:24:27;;;;;;;8.95;3.85;;;;;;;18.16;39.18;100984.41;5069715;28;20051;-70
2023/06/09 06:26:54;;;;;;;9.98;3.63;;;;;;;18.18;40.23;100981.50;5069642;28;20136;-70
2023/06/09 06:29:20;;;;;;;22.10;4.38;;;;;;;18.18;38.91;100981.50;5069070;28;20484;-70
2023/06/09 06:31:50;;;;;;;11.63;3.90;;;;;;;18.37;40.53;100980.69;5069578;28;20052;-69
2023/06/09 06:34:16;;;;;;;14.35;3.45;;;;;;;18.33;39.66;100981.31;5068753;28;20049;-70
2023/06/09 06:36:43;;;;;;;25.20;3.75;;;;;;;18.56;40.77;100979.06;5070159;28;20053;-70
2023/06/09 06:39:12;;;;;;;8.73;3.45;;;;;;;18.39;39.28;100986.78;5057551;28;20048;-70
2023/06/09 06:41:38;;;;;;;9.88;3.92;;;;;;;18.52;39.72;100988.69;5050357;28;20037;-69
2023/06/09 06:44:05;;;;;;;6.82;3.75;;;;;;;18.53;39.21;100991.19;5040852;28;20102;-70
2023/06/09 06:46:34;;;;;;;10.55;3.35;;;;;;;18.79;39.03;100989.53;5049506;28;20103;-70
2023/06/09 06:49:02;;;;;;;10.95;4.18;;;;;;;18.75;39.09;100994.53;5039300;28;20044;-70
2023/06/09 06:51:28;;;;;;;8.55;3.70;;;;;;;18.56;39.69;100984.50;5050695;28;20094;-70
2023/06/09 06:53:55;;;;;;;9.85;3.85;;;;;;;18.48;39.83;100993.69;5050223;28;20099;-69
2023/06/09 06:56:22;;;;;;;8.18;4.20;;;;;;;18.60;40.30;100990.38;5050680;28;20550;-71
2023/06/09 06:58:49;;;;;;;12.07;4.03;;;;;;;18.71;41.13;100992.47;5050015;28;20049;-70
2023/06/09 07:01:17;;;;;;;8.40;3.55;;;;;;;18.95;41.11;100996.47;5050350;28;20072;-70
2023/06/09 07:03:45;;;;;;;6.00;4.30;;;;;;;18.94;40.40;101003.81;5033189;28;20056;-70
2023/06/09 07:06:12;;;;;;;13.88;4.90;;;;;;;19.18;41.03;100998.78;5051162;28;20107;-71
2023/06/09 07:08:38;;;;;;;11.07;4.18;;;;;;;19.47;40.43;100992.88;5050638;28;20040;-70
2023/06/09 07:11:05;;;;;;;11.55;4.15;;;;;;;19.41;40.40;100999.16;5051120;28;20045;-69
2023/06/09 07:13:32;;;;;;;10.50;3.50;;;;;;;19.71;41.43;100995.97;5068652;28;20117;-70
2023/06/09 07:16:00;;;;;;;8.90;4.03;;;;;;;19.69;40.81;100995.34;5069849;28;20052;-69
2023/06/09 07:18:27;;;;;;;13.90;4.10;;;;;;;19.81;40.74;100998.25;5070215;28;20135;-70
2023/06/09 07:20:55;;;;;;;8.57;3.90;;;;;;;20.36;40.37;101001.34;5070226;28;20052;-70
2023/06/09 07:23:21;;;;;;;13.25;3.63;;;;;;;20.72;39.45;101000.72;5070367;28;20499;-70
2023/06/09 07:25:48;;;;;;;17.70;4.50;;;;;;;21.03;39.17;100997.13;5070555;28;20048;-71
2023/06/09 07:28:15;;;;;;;8.15;4.15;;;;;;;21.34;38.19;100998.97;5069532;28;20052;-70
2023/06/09 07:30:42;;;;;;;10.93;4.22;;;;;;;21.49;38.18;101001.31;5072820;28;20064;-73
2023/06/09 07:33:09;;;;;;;20.63;4.95;;;;;;;21.52;37.61;101005.50;5074497;28;20109;-72
2023/06/09 07:35:36;;;;;;;8.65;4.00;;;;;;;21.67;37.64;101000.53;5074295;28;20040;-71
2023/06/09 07:38:03;;;;;;;21.45;4.28;;;;;;;21.66;37.10;100996.09;5070193;28;20111;-71
2023/06/09 07:40:30;;;;;;;13.57;4.28;;;;;;;21.61;37.99;100999.53;5053866;28;20047;-72
2023/06/09 07:42:56;;;;;;;6.95;3.47;;;;;;;22.15;36.24;100997.03;5053873;28;20060;-71
2023/06/09 07:45:23;;;;;;;10.05;4.25;;;;;;;22.27;36.13;100997.06;5053626;28;20507;-72
2023/06/09 07:47:50;;;;;;;12.85;3.78;;;;;;;21.98;35.93;100999.56;5053042;28;20060;-72
2023/06/09 07:50:17;;;;;;;13.85;4.28;;;;;;;21.73;36.61;101002.31;5053811;28;20420;-72
2023/06/09 07:52:44;;;;;;;11.43;3.92;;;;;;;21.66;37.16;101001.56;5053762;28;20053;-71
2023/06/09 07:55:11;;;;;;;11.25;4.35;;;;;;;22.14;37.28;100999.97;5054224;28;20419;-71
2023/06/09 07:57:42;;;;;;;9.97;3.60;;;;;;;22.38;37.01;100998.19;5053914;28;20457;-71
2023/06/09 08:00:10;;;;;;;10.30;4.05;;;;;;;22.84;36.77;100999.41;5053220;28;20045;-72
2023/06/09 08:02:41;;;;;;;14.40;4.55;;;;;;;22.97;36.67;101004.66;5053078;28;20045;-72
2023/06/09 08:05:09;;;;;;;7.70;3.60;;;;;;;23.37;36.19;100996.63;5053151;28;20049;-70
2023/06/09 08:07:36;;;;;;;8.45;3.70;;;;;;;23.43;35.80;100990.19;5052674;28;20040;-70
2023/06/09 08:10:03;;;;;;;11.68;4.13;;;;;;;23.22;36.05;100991.59;5034775;28;20120;-70
2023/06/09 08:12:30;;;;;;;8.77;3.85;;;;;;;22.88;36.72;100998.72;5053093;28;20128;-72
2023/06/09 08:14:57;;;;;;;15.90;4.35;;;;;;;22.70;36.61;101005.06;5051766;28;20103;-71
2023/06/09 08:17:24;;;;;;;8.02;3.38;;;;;;;22.72;36.98;100994.75;5051636;28;20052;-71
2023/06/09 08:19:50;;;;;;;11.75;3.92;;;;;;;22.91;35.84;101000.13;5052856;28;20049;-70
2023/06/09 08:22:17;;;;;;;13.18;3.40;;;;;;;23.40;35.55;100998.03;5052889;28;20065;-71
2023/06/09 08:24:43;;;;;;;10.18;3.90;;;;;;;23.50;35.60;100998.25;5053021;28;20052;-71
2023/06/09 08:27:10;;;;;;;8.73;3.58;;;;;;;23.62;34.12;100998.25;5052997;28;20132;-70
2023/06/09 08:29:37;;;;;;;10.80;3.72;;;;;;;23.12;35.29;101002.34;5052814;28;20076;-71
2023/06/09 08:32:04;;;;;;;8.73;3.78;;;;;;;23.40;35.30;100990.66;5052597;28;20119;-71
2023/06/09 08:34:30;;;;;;;9.88;3.53;;;;;;;23.60;35.31;100994.91;5041514;28;20053;-70
2023/06/09 08:36:57;;;;;;;11.07;4.00;;;;;;;23.80;34.86;101000.84;5049765;28;20111;-70
2023/06/09 08:39:24;;;;;;;12.50;3.72;;;;;;;24.03;33.89;100994.50;5050691;28;20049;-70
2023/06/09 08:41:54;;;;;;;7.70;3.35;;;;;;;24.23;34.11;100990.47;5051106;28;20049;-70
2023/06/09 08:44:23;;;;;;;11.68;3.83;;;;;;;24.42;34.16;100992.81;5051957;28;20048;-70
2023/06/09 08:46:51;;;;;;;16.35;4.00;;;;;;;23.86;34.68;101002.66;5052275;28;20068;-71
2023/06/09 08:49:19;;;;;;;13.52;3.67;;;;;;;23.36;35.14;100994.09;5052383;28;20045;-70
2023/06/09 08:51:46;;;;;;;11.00;3.78;;;;;;;23.16;35.81;100999.97;5051911;28;20412;-69
2023/06/09 08:54:17;;;;;;;11.38;3.72;;;;;;;23.13;35.69;101006.72;5051878;28;20419;-72
2023/06/09 08:56:47;;;;;;;9.98;3.78;;;;;;;22.75;35.88;101007.13;5052061;28;20057;-71
2023/06/09 08:59:15;;;;;;;13.85;4.28;;;;;;;22.15;37.01;101007.97;5052056;28;20055;-71
2023/06/09 09:01:42;;;;;;;9.55;3.88;;;;;;;22.15;37.52;101010.69;5052215;28;20045;-72
2023/06/09 09:04:08;;;;;;;9.73;3.63;;;;;;;22.05;38.23;101008.50;5052489;28;20068;-72
2023/06/09 09:06:37;;;;;;;12.38;3.95;;;;;;;21.90;37.93;101015.41;5052501;28;20051;-72
2023/06/09 09:09:04;;;;;;;10.68;3.75;;;;;;;21.67;38.64;101010.59;5052689;28;20045;-71
2023/06/09 09:11:31;;;;;;;9.23;3.85;;;;;;;21.25;37.96;101011.25;5052433;28;20531;-72
2023/06/09 09:13:58;;;;;;;9.93;3.97;;;;;;;21.53;38.35;101007.19;5052504;28;20128;-70
2023/06/09 09:16:32;;;;;;;11.25;4.20;;;;;;;21.12;37.81;101009.47;5051936;28;20051;-72
2023/06/09 09:19:01;;;;;;;13.20;4.15;;;;;;;21.31;37.68;101010.31;5049848;28;20051;-72
2023/06/09 09:21:28;;;;;;;17.13;3.80;;;;;;;21.86;37.22;101004.09;5034639;28;20053;-72
2023/06/09 09:23:57;;;;;;;8.65;3.35;;;;;;;22.56;37.16;101006.34;5051962;28;20041;-72
2023/06/09 09:26:29;;;;;;;10.63;3.47;;;;;;;23.11;36.00;101008.81;5051445;28;20053;-72
2023/06/09 09:28:56;;;;;;;;;;;;;;;23.17;35.81;100999.69;5051464;28;20148;-72
2023/06/09 09:31:41;;;;;;;11.05;3.30;;;;;;;23.44;35.87;101002.81;5052144;28;20327;-72
2023/06/09 09:34:15;;;;;;;12.18;3.83;;;;;;;23.56;35.96;101010.16;5051807;28;20079;-72
2023/06/09 09:36:45;;;;;;;15.68;4.28;;;;;;;24.15;35.68;101002.66;5051602;28;20095;-72
2023/06/09 09:39:12;;;;;;;10.80;3.60;;;;;;;24.86;34.70;100992.19;5038262;28;20037;-72
2023/06/09 09:41:38;;;;;;;10.18;4.10;;;;;;;24.42;35.38;100991.97;5032501;28;20045;-72
2023/06/09 09:44:06;;;;;;;10.23;3.65;;;;;;;24.59;35.21;100987.34;5031561;28;20125;-71
2023/06/09 09:46:39;;;;;;;9.82;3.95;;;;;;;24.86;34.89;100993.03;5031469;28;20052;-72
2023/06/09 09:49:07;;;;;;;9.85;3.95;;;;;;;25.03;34.75;100984.00;5031025;28;20128;-72
2023/06/09 09:51:35;;;;;;;16.60;4.13;;;;;;;25.44;34.52;100985.41;5031710;28;20137;-71
2023/06/09 09:54:01;;;;;;;9.43;3.95;;;;;;;26.08;33.73;100982.13;5031182;28;20075;-70
2023/06/09 09:56:28;;;;;;;12.23;4.18;;;;;;;26.43;33.78;100978.94;5031799;28;20042;-71
2023/06/09 09:58:55;;;;;;;13.02;3.55;;;;;;;26.26;34.36;100984.56;5031165;28;20046;-71
2023/06/09 10:01:26;;;;;;;11.52;4.13;;;;;;;26.58;33.66;100989.25;5030934;28;20050;-71
2023/06/09 10:03:55;;;;;;;6.43;3.45;;;;;;;27.00;33.02;100980.28;5030581;28;20152;-73
2023/06/09 10:06:27;;;;;;;9.07;3.72;;;;;;;27.55;32.44;100975.41;5030584;28;20052;-72
2023/06/09 10:08:55;;;;;;;11.25;3.75;;;;;;;27.29;32.73;100975.25;5031032;28;20060;-72
2023/06/09 10:11:27;;;;;;;13.50;4.85;;;;;;;27.86;31.62;100968.13;5034443;28;20051;-70
2023/06/09 10:13:54;;;;;;;10.45;4.03;;;;;;;28.39;31.69;100977.94;5051193;28;20069;-72
2023/06/09 10:16:21;;;;;;;9.55;4.38;;;;;;;27.25;32.73;100971.38;5051101;28;20550;-70
2023/06/09 10:18:48;;;;;;;8.90;3.33;;;;;;;27.09;32.86;100975.94;5050468;28;20532;-71
2023/06/09 10:21:15;;;;;;;10.82;4.15;;;;;;;27.07;32.43;100977.31;5050758;28;20045;-70
2023/06/09 10:23:42;;;;;;;11.05;3.47;;;;;;;27.37;32.65;100962.94;5051378;28;20072;-71
2023/06/09 10:26:10;;;;;;;9.60;4.10;;;;;;;27.39;32.27;100974.53;5032984;28;20041;-71
2023/06/09 10:28:37;;;;;;;6.30;3.60;;;;;;;27.78;31.00;100963.97;5050353;28;20044;-72
2023/06/09 10:31:07;;;;;;;8.05;3.33;;;;;;;28.34;29.77;100958.59;5050541;28;20071;-71
2023/06/09 10:33:38;;;;;;;7.07;3.47;;;;;;;27.98;30.12;100962.41;5050316;28;20511;-71
2023/06/09 10:36:05;;;;;;;7.65;3.38;;;;;;;28.37;29.70;100955.31;5049852;28;20411;-71
2023/06/09 10:38:35;;;;;;;9.10;3.45;;;;;;;27.42;30.82;100960.22;5050255;28;20044;-71
2023/06/09 10:41:05;;;;;;;10.98;3.50;;;;;;;27.68;31.02;100955.66;5049548;28;20053;-69
2023/06/09 10:43:59;;;;;;;11.77;3.90;;;;;;;27.33;31.54;100959.88;5049994;28;20178;-71
2023/06/09 10:46:43;;;;;;;6.78;3.55;;;;;;;27.15;31.29;100957.56;5050080;28;20386;-70
2023/06/09 10:49:25;;;;;;;5.38;3.15;;;;;;;26.43;32.12;100950.63;5050031;28;20037;-71
2023/06/09 10:51:53;;;;;;;11.40;3.47;;;;;;;26.36;32.13;100950.81;5048736;28;20124;-71
2023/06/09 10:54:21;;;;;;;11.23;3.80;;;;;;;26.39;31.89;100955.00;5049585;28;20045;-70
2023/06/09 10:56:54;;;;;;;5.93;3.58;;;;;;;26.18;31.69;100945.72;5050078;28;20049;-69
2023/06/09 10:59:23;;;;;;;9.43;3.63;;;;;;;25.91;32.09;100943.72;5050645;28;20049;-70
2023/06/09 11:01:59;;;;;;;6.68;3.42;;;;;;;25.90;32.99;100947.56;5050010;28;20053;-71
2023/06/09 11:04:44;;;;;;;9.27;3.45;;;;;;;25.70;32.39;100934.41;5049695;28;20063;-69
2023/06/09 11:07:15;;;;;;;6.47;3.25;;;;;;;25.74;33.63;100931.97;5048773;28;20489;-74
2023/06/09 11:09:50;;;;;;;6.15;3.25;;;;;;;25.57;32.37;100937.50;5032793;28;20045;-73
2023/06/09 11:12:29;;;;;;;9.55;3.20;;;;;;;25.07;31.36;100938.50;5049391;28;20408;-71
2023/06/09 11:14:58;;;;;;;7.07;3.38;;;;;;;24.83;33.38;100933.16;5050340;28;20354;-71
2023/06/09 11:17:36;;;;;;;5.70;3.42;;;;;;;24.83;33.16;100932.31;5049242;28;20045;-71
2023/06/09 11:20:08;;;;;;;8.85;3.58;;;;;;;25.05;32.96;100924.16;5032252;28;20049;-71
2023/06/09 11:22:42;;;;;;;6.18;2.95;;;;;;;24.79;31.42;100932.00;5049854;28;20045;-73
2023/06/09 11:25:15;;;;;;;7.45;3.25;;;;;;;24.78;31.95;100924.81;5050071;28;20041;-69